»·PEaware :: N130LM KMAF-KHRL

N130LM :: KMAF-KHRL

FLIGHT INFORMATION

Flight Status: Arrived
Operator: Privately registered:
United States
More flights under this callsign
Pilot: Justin M. (19723)
Aircraft: DASSAULT AVIATION FALCON 50
(FA50)
More flights by this aircraft type
Origin: KMAF Midland Intl
United States
Destination: KHRL Valley Intl
United States
More flights between these airports :: More routes between these airports
Route: +LRD
File this flight plan on PilotEdge
Remarks:
Altitude:
(Current/Filed)
370ft
Speed:
(Current/Filed)
0kts
Departed: 17-Mar-20 12:31 PM
Arrived: 17-Mar-20 01:33 PM
Distance/Time
Traveled:
418nm/1:02
Distance/Time
To Go:
Arrived

Flight Plot

Page will automatically refresh every two minutes.

Flight plan parsing failed; only flown route is shown


Map Options




Map Legend


Flown Route
Filed Route
Departure Airport
Arrival Airport
Navaid (VOR, NDB)
Fix

Horizontal Profiles

Position Reports

Time Latitude Longitude Heading Altitude Ground
Speed
17-Mar-20 12:22 31.939707 -102.207311 355 2878ft 0kts
17-Mar-20 12:23 31.939707 -102.207311 355 2878ft 0kts
17-Mar-20 12:23 31.939707 -102.207311 355 2878ft 0kts
17-Mar-20 12:24 31.939707 -102.207311 355 2878ft 0kts
17-Mar-20 12:25 31.940443 -102.205781 21 2878ft 12kts
17-Mar-20 12:26 31.944798 -102.206128 356 2878ft 19kts
17-Mar-20 12:27 31.950140 -102.206680 355 2878ft 20kts
17-Mar-20 12:28 31.955108 -102.207025 354 2878ft 22kts
17-Mar-20 12:29 31.959210 -102.206612 86 2878ft 11kts
17-Mar-20 12:30 31.941572 -102.203770 176 3178ft 177kts
17-Mar-20 12:31 31.873560 -102.191816 172 6522ft 297kts
17-Mar-20 12:32 31.797172 -102.150431 152 11726ft 341kts
17-Mar-20 12:33 31.711442 -102.092718 154 16079ft 373kts
17-Mar-20 12:34 31.618447 -102.030980 155 19836ft 394kts
17-Mar-20 12:35 31.521279 -101.966679 155 23003ft 409kts
17-Mar-20 12:36 31.420621 -101.900195 156 25653ft 421kts
17-Mar-20 12:37 31.317509 -101.832243 156 27891ft 431kts
17-Mar-20 12:38 31.211914 -101.762909 157 29736ft 439kts
17-Mar-20 12:39 31.106034 -101.693420 157 31865ft 431kts
17-Mar-20 12:40 31.003568 -101.626379 158 34183ft 416kts
17-Mar-20 12:41 30.903028 -101.560933 159 35927ft 413kts
17-Mar-20 12:42 30.803229 -101.496150 159 37147ft 423kts
17-Mar-20 12:43 30.696561 -101.427161 158 37131ft 452kts
17-Mar-20 12:44 30.585310 -101.355045 158 37120ft 462kts
17-Mar-20 12:45 30.473929 -101.283052 159 37106ft 461kts
17-Mar-20 12:46 30.361974 -101.210998 159 37105ft 461kts
17-Mar-20 12:47 30.249579 -101.138866 159 37104ft 461kts
17-Mar-20 12:48 30.137568 -101.067168 159 37104ft 461kts
17-Mar-20 12:49 30.026071 -100.993872 153 37098ft 468kts
17-Mar-20 12:50 29.923337 -100.898659 148 37117ft 475kts
17-Mar-20 12:51 29.820673 -100.803182 149 37172ft 474kts
17-Mar-20 12:52 29.717476 -100.708698 149 37180ft 475kts
17-Mar-20 12:53 29.614070 -100.614369 149 37179ft 475kts
17-Mar-20 12:54 29.510533 -100.520167 149 37179ft 475kts
17-Mar-20 12:55 29.406986 -100.426222 149 37166ft 475kts
17-Mar-20 12:56 29.308636 -100.337212 149 37082ft 475kts
17-Mar-20 12:57 29.204736 -100.243446 149 37048ft 475kts
17-Mar-20 12:58 29.100896 -100.150059 150 37047ft 473kts
17-Mar-20 12:59 28.981061 -100.110067 174 37047ft 448kts
17-Mar-20 13:00 28.860272 -100.077140 162 37059ft 460kts
17-Mar-20 13:01 28.748582 -100.001068 149 37074ft 475kts
17-Mar-20 13:02 28.648098 -99.900817 148 37071ft 478kts
17-Mar-20 13:03 28.545034 -99.805212 147 37057ft 478kts
17-Mar-20 13:04 28.442878 -99.708146 147 37057ft 478kts
17-Mar-20 13:05 28.340862 -99.611117 147 37057ft 478kts
17-Mar-20 13:06 28.238443 -99.513958 147 37053ft 478kts
17-Mar-20 13:07 28.136324 -99.417343 147 37047ft 479kts
17-Mar-20 13:08 28.033719 -99.320507 147 37035ft 479kts
17-Mar-20 13:09 27.930777 -99.223638 147 37037ft 480kts
17-Mar-20 13:10 27.828035 -99.127170 147 37047ft 480kts
17-Mar-20 13:11 27.725089 -99.030765 147 37056ft 481kts
17-Mar-20 13:12 27.621616 -98.934122 147 37065ft 483kts
17-Mar-20 13:13 27.518226 -98.837784 147 37066ft 483kts
17-Mar-20 13:14 27.414783 -98.741620 146 35312ft 480kts
17-Mar-20 13:15 27.311663 -98.646071 145 32824ft 484kts
17-Mar-20 13:17 27.188984 -98.532681 144 29913ft 493kts
17-Mar-20 13:17 27.100209 -98.450786 144 27829ft 492kts
17-Mar-20 13:18 26.995905 -98.354746 143 25318ft 478kts
17-Mar-20 13:19 26.897494 -98.264450 144 22855ft 464kts
17-Mar-20 13:20 26.798620 -98.173932 144 20332ft 450kts
17-Mar-20 13:21 26.710672 -98.085292 139 17813ft 391kts
17-Mar-20 13:22 26.636913 -98.006640 139 14984ft 351kts
17-Mar-20 13:23 26.567770 -97.934520 138 11972ft 331kts
17-Mar-20 13:24 26.517422 -97.855105 122 8945ft 279kts
17-Mar-20 13:25 26.480108 -97.783837 123 6171ft 249kts
17-Mar-20 13:26 26.446268 -97.719674 123 4278ft 224kts
17-Mar-20 13:27 26.415209 -97.661129 125 2768ft 215kts
17-Mar-20 13:28 26.362886 -97.647259 178 2187ft 197kts
17-Mar-20 13:29 26.314487 -97.647732 178 1742ft 133kts
17-Mar-20 13:30 26.277792 -97.648147 180 962ft 140kts
17-Mar-20 13:31 26.239787 -97.648590 181 204ft 127kts
17-Mar-20 13:32 26.220114 -97.648755 148 33ft 9kts
17-Mar-20 13:33 26.222114 -97.647562 0 33ft 13kts
17-Mar-20 13:34 26.223738 -97.646634 81 33ft 2kts
17-Mar-20 13:35 26.223718 -97.646562 124 33ft 0kts
17-Mar-20 13:36 26.223718 -97.646562 124 33ft 0kts
17-Mar-20 13:37 26.223718 -97.646562 124 33ft 0kts
17-Mar-20 13:38 26.223718 -97.646562 124 33ft 0kts
17-Mar-20 13:39 26.223718 -97.646562 124 33ft 0kts
17-Mar-20 13:40 26.223718 -97.646562 124 33ft 0kts
17-Mar-20 13:41 26.223718 -97.646562 124 33ft 0kts
17-Mar-20 13:42 26.223718 -97.646562 124 33ft 0kts
17-Mar-20 13:43 26.223718 -97.646562 124 33ft 0kts
17-Mar-20 13:44 26.223718 -97.646562 124 33ft 0kts
17-Mar-20 13:45 26.223718 -97.646562 124 33ft 0kts
17-Mar-20 13:46 26.223718 -97.646562 124 33ft 0kts
17-Mar-20 13:47 26.223718 -97.646562 124 33ft 0kts

Navigation Log

Ident Type
Flight plan parsing failed, navigation log unavailable